Byrnedale, PA

12:34 PM EST on February 10, 2016 (GMT -0500)
APRSWXNET | | Change Station
CLOSE
Current Station
Personal Weather Station
Location: Saint Marys, PA
Elevation: 1580 ft
Nearby Weather Stations

Elev 1580 ft 41.42 °N, 78.58 °W | Updated 27 minutes ago

Snow
Snow
23 °F
Feels Like 17 °F
N
5
Wind Variable Wind from West
Gusts 0.0 mph

Today
High -- | Low -- °F
--% Chance of Precip.
Yesterday
High -- | Low -- °F
Precip. -- in
Pressure 29.69 in
Visibility 4.0 miles
Clouds Mostly Cloudy 2600 ft
Overcast 3600 ft
Windchill 17 °F
Dew Point 16 °F
Humidity 74%
Rainfall in
Snow Depth Not available.
7:15 AM 5:41 PM
Waxing Crescent, 6% visible
SPECI KFIG 101725Z AUTO 25012G21KT 4SM -SN BKN026 OVC036 M06/M10 A2969 RMK AO2 P0000 T10561100
Pressure 29.69 in
Visibility 4.0 miles
Clouds Mostly Cloudy 2600 ft
Overcast 3600 ft
Windchill 17 °F
Dew Point 16 °F
Humidity 74%
Rainfall in
Snow Depth Not available.
7:15 AM 5:41 PM
Waxing Crescent, 6% visible
SPECI KFIG 101725Z AUTO 25012G21KT 4SM -SN BKN026 OVC036 M06/M10 A2969 RMK AO2 P0000 T10561100

10-Day Weather Forecast

Almanac

Astronomy

Feb. 10, 2016 Rise Set
Actual Time
Civil Twilight
Nautical Twilight
Astronomical Twilight
Moon
Length of Visible Light
Length of Day
Tomorrow will be .
, % of the Moon is Illuminated

Today's Extremes

State Highs State Lows

Community

WunderPhotos

Upload Photos

1,891,898 photos uploaded!

WunderBlog® & News

Nearby

Air Quality

  Air Quality AQ Index Pollutant
Not available.

Snow Depth

Station Depth Elevation

Earthquake Activity

City Distance Mag. Time & Date
Minimum magnitude displayed is 2.5.

Coastal Water Temperatures

Place Temperature

Stations

Nearby Weather Stations

Station Location Temp. Windchill Dew Point Humidity Wind Precip. Elev Updated Type
                   

Watches & Warnings

There are currently no watches in effect.